Weather at Cornwall Regional Airport

Public forecast

Using degrees Celsius for public forecast. Weather courtesy of forecast.io.

Closest aviation weather report (METAR) to Cornwall Regional Airport

Closest report is Massena International Richards Field, 15.2 nm (28.2 km) SW. Retrieved 2020/10/29 06:53 UTC (30 minutes ago):

KMSS 290653Z AUTO 24003KT 10SM OVC100 05/02 A2992 RMK AO2 SLP134 T00500022

Closest aviation forecast (TAF) to Cornwall Regional Airport

Closest forecast is Massena International Richards Field, 15.2 nm (28.2 km) SW. Retrieved 2020/10/29 06:34 UTC (49 minutes ago):

TAF KMSS 290532Z 2906/3006 25005KT P6SM SCT090 FM291400 02006KT P6SM OVC050 FM300200 05010KT P6SM BKN080